sensor_id;sensor_type;location;lat;lon;timestamp;P1;durP1;ratioP1;P2;durP2;ratioP2
19107;SDS011;9686;48.832;9.126;2024-01-07T00:01:13;5.10;;;4.60;;
19107;SDS011;9686;48.832;9.126;2024-01-07T00:03:42;4.93;;;4.43;;
19107;SDS011;9686;48.832;9.126;2024-01-07T00:06:07;8.13;;;6.20;;
19107;SDS011;9686;48.832;9.126;2024-01-07T00:08:34;5.13;;;4.40;;
19107;SDS011;9686;48.832;9.126;2024-01-07T00:11:00;7.10;;;5.13;;
19107;SDS011;9686;48.832;9.126;2024-01-07T00:13:25;17.03;;;6.53;;
19107;SDS011;9686;48.832;9.126;2024-01-07T00:15:50;7.23;;;5.23;;
19107;SDS011;9686;48.832;9.126;2024-01-07T00:18:16;7.80;;;6.53;;
19107;SDS011;9686;48.832;9.126;2024-01-07T00:20:41;7.97;;;5.43;;
19107;SDS011;9686;48.832;9.126;2024-01-07T00:23:06;5.87;;;5.33;;
19107;SDS011;9686;48.832;9.126;2024-01-07T00:25:31;7.23;;;4.90;;
19107;SDS011;9686;48.832;9.126;2024-01-07T00:27:57;4.00;;;3.30;;
19107;SDS011;9686;48.832;9.126;2024-01-07T00:30:22;4.03;;;3.63;;
19107;SDS011;9686;48.832;9.126;2024-01-07T00:32:47;6.53;;;5.07;;
19107;SDS011;9686;48.832;9.126;2024-01-07T00:35:16;6.80;;;5.17;;
19107;SDS011;9686;48.832;9.126;2024-01-07T00:37:41;7.40;;;5.47;;
19107;SDS011;9686;48.832;9.126;2024-01-07T00:40:06;7.33;;;5.47;;
19107;SDS011;9686;48.832;9.126;2024-01-07T00:42:33;8.30;;;5.30;;
19107;SDS011;9686;48.832;9.126;2024-01-07T00:44:58;9.23;;;6.50;;
19107;SDS011;9686;48.832;9.126;2024-01-07T00:47:23;8.90;;;6.00;;
19107;SDS011;9686;48.832;9.126;2024-01-07T00:49:48;6.40;;;5.07;;
19107;SDS011;9686;48.832;9.126;2024-01-07T00:52:14;8.63;;;6.57;;
19107;SDS011;9686;48.832;9.126;2024-01-07T00:54:39;14.17;;;7.17;;
19107;SDS011;9686;48.832;9.126;2024-01-07T00:57:04;8.30;;;6.60;;
19107;SDS011;9686;48.832;9.126;2024-01-07T00:59:30;14.77;;;8.40;;
19107;SDS011;9686;48.832;9.126;2024-01-07T01:01:55;9.73;;;7.70;;
19107;SDS011;9686;48.832;9.126;2024-01-07T01:04:20;9.27;;;7.40;;
19107;SDS011;9686;48.832;9.126;2024-01-07T01:06:46;11.97;;;8.40;;
19107;SDS011;9686;48.832;9.126;2024-01-07T01:09:11;11.40;;;8.77;;
19107;SDS011;9686;48.832;9.126;2024-01-07T01:11:37;11.40;;;7.97;;
19107;SDS011;9686;48.832;9.126;2024-01-07T01:14:02;12.93;;;7.67;;
19107;SDS011;9686;48.832;9.126;2024-01-07T01:16:27;10.73;;;7.43;;
19107;SDS011;9686;48.832;9.126;2024-01-07T01:18:53;8.27;;;6.40;;
19107;SDS011;9686;48.832;9.126;2024-01-07T01:21:18;14.40;;;8.80;;
19107;SDS011;9686;48.832;9.126;2024-01-07T01:23:43;12.67;;;9.03;;
19107;SDS011;9686;48.832;9.126;2024-01-07T01:26:09;14.40;;;8.97;;
19107;SDS011;9686;48.832;9.126;2024-01-07T01:28:34;12.70;;;8.73;;
19107;SDS011;9686;48.832;9.126;2024-01-07T01:30:59;11.00;;;8.50;;
19107;SDS011;9686;48.832;9.126;2024-01-07T01:33:25;12.80;;;9.03;;
19107;SDS011;9686;48.832;9.126;2024-01-07T01:35:50;12.90;;;9.10;;
19107;SDS011;9686;48.832;9.126;2024-01-07T01:38:15;15.23;;;9.97;;
19107;SDS011;9686;48.832;9.126;2024-01-07T01:40:41;16.57;;;9.87;;
19107;SDS011;9686;48.832;9.126;2024-01-07T01:43:07;12.47;;;8.97;;
19107;SDS011;9686;48.832;9.126;2024-01-07T01:45:32;15.33;;;7.90;;
19107;SDS011;9686;48.832;9.126;2024-01-07T01:47:57;8.43;;;7.07;;
19107;SDS011;9686;48.832;9.126;2024-01-07T01:50:23;20.23;;;9.40;;
19107;SDS011;9686;48.832;9.126;2024-01-07T01:52:49;11.20;;;9.73;;
19107;SDS011;9686;48.832;9.126;2024-01-07T01:55:15;9.73;;;8.40;;
19107;SDS011;9686;48.832;9.126;2024-01-07T01:57:40;12.20;;;7.70;;
19107;SDS011;9686;48.832;9.126;2024-01-07T02:00:06;14.10;;;7.63;;
19107;SDS011;9686;48.832;9.126;2024-01-07T02:02:33;8.50;;;7.57;;
19107;SDS011;9686;48.832;9.126;2024-01-07T02:05:02;11.43;;;8.23;;
19107;SDS011;9686;48.832;9.126;2024-01-07T02:07:28;13.20;;;9.80;;
19107;SDS011;9686;48.832;9.126;2024-01-07T02:09:55;11.70;;;8.50;;
19107;SDS011;9686;48.832;9.126;2024-01-07T02:12:20;10.93;;;7.77;;
19107;SDS011;9686;48.832;9.126;2024-01-07T02:14:45;15.00;;;9.23;;
19107;SDS011;9686;48.832;9.126;2024-01-07T02:17:11;13.73;;;8.27;;
19107;SDS011;9686;48.832;9.126;2024-01-07T02:19:36;10.30;;;7.47;;
19107;SDS011;9686;48.832;9.126;2024-01-07T02:22:03;12.77;;;6.57;;
19107;SDS011;9686;48.832;9.126;2024-01-07T02:24:28;8.33;;;6.60;;
19107;SDS011;9686;48.832;9.126;2024-01-07T02:26:55;12.90;;;7.40;;
19107;SDS011;9686;48.832;9.126;2024-01-07T02:29:20;14.87;;;8.20;;
19107;SDS011;9686;48.832;9.126;2024-01-07T02:31:46;15.20;;;6.73;;
19107;SDS011;9686;48.832;9.126;2024-01-07T02:34:11;8.20;;;6.77;;
19107;SDS011;9686;48.832;9.126;2024-01-07T02:36:36;8.30;;;6.67;;
19107;SDS011;9686;48.832;9.126;2024-01-07T02:39:02;15.73;;;7.47;;
19107;SDS011;9686;48.832;9.126;2024-01-07T02:41:27;8.23;;;6.17;;
19107;SDS011;9686;48.832;9.126;2024-01-07T02:43:52;10.40;;;6.70;;
19107;SDS011;9686;48.832;9.126;2024-01-07T02:46:19;7.00;;;5.70;;
19107;SDS011;9686;48.832;9.126;2024-01-07T02:48:44;7.90;;;6.07;;
19107;SDS011;9686;48.832;9.126;2024-01-07T02:51:10;5.87;;;5.37;;
19107;SDS011;9686;48.832;9.126;2024-01-07T02:53:35;8.37;;;6.07;;
19107;SDS011;9686;48.832;9.126;2024-01-07T02:56:00;7.63;;;5.60;;
19107;SDS011;9686;48.832;9.126;2024-01-07T02:58:25;8.07;;;5.60;;
19107;SDS011;9686;48.832;9.126;2024-01-07T03:00:51;7.33;;;5.60;;
19107;SDS011;9686;48.832;9.126;2024-01-07T03:03:16;8.87;;;6.30;;
19107;SDS011;9686;48.832;9.126;2024-01-07T03:05:42;8.97;;;5.80;;
19107;SDS011;9686;48.832;9.126;2024-01-07T03:08:07;10.40;;;6.63;;
19107;SDS011;9686;48.832;9.126;2024-01-07T03:10:33;6.77;;;6.17;;
19107;SDS011;9686;48.832;9.126;2024-01-07T03:12:58;8.40;;;5.43;;
19107;SDS011;9686;48.832;9.126;2024-01-07T03:15:23;8.93;;;6.83;;
19107;SDS011;9686;48.832;9.126;2024-01-07T03:17:48;7.30;;;6.30;;
19107;SDS011;9686;48.832;9.126;2024-01-07T03:20:14;9.60;;;7.17;;
19107;SDS011;9686;48.832;9.126;2024-01-07T03:22:39;8.53;;;6.80;;
19107;SDS011;9686;48.832;9.126;2024-01-07T03:25:05;9.40;;;6.50;;
19107;SDS011;9686;48.832;9.126;2024-01-07T03:27:31;8.87;;;5.90;;
19107;SDS011;9686;48.832;9.126;2024-01-07T03:29:56;12.40;;;6.33;;
19107;SDS011;9686;48.832;9.126;2024-01-07T03:32:21;8.33;;;5.63;;
19107;SDS011;9686;48.832;9.126;2024-01-07T03:34:47;13.87;;;6.63;;
19107;SDS011;9686;48.832;9.126;2024-01-07T03:37:12;6.67;;;5.67;;
19107;SDS011;9686;48.832;9.126;2024-01-07T03:39:37;6.87;;;5.13;;
19107;SDS011;9686;48.832;9.126;2024-01-07T03:42:02;7.93;;;6.37;;
19107;SDS011;9686;48.832;9.126;2024-01-07T03:44:28;8.30;;;6.20;;
19107;SDS011;9686;48.832;9.126;2024-01-07T03:46:53;7.77;;;5.93;;
19107;SDS011;9686;48.832;9.126;2024-01-07T03:49:18;10.83;;;7.03;;
19107;SDS011;9686;48.832;9.126;2024-01-07T03:51:44;7.37;;;6.10;;
19107;SDS011;9686;48.832;9.126;2024-01-07T03:54:09;14.70;;;6.80;;
19107;SDS011;9686;48.832;9.126;2024-01-07T03:56:34;7.67;;;5.87;;
19107;SDS011;9686;48.832;9.126;2024-01-07T03:58:59;6.67;;;5.43;;
19107;SDS011;9686;48.832;9.126;2024-01-07T04:01:25;7.20;;;5.73;;
19107;SDS011;9686;48.832;9.126;2024-01-07T04:03:50;9.70;;;6.40;;
19107;SDS011;9686;48.832;9.126;2024-01-07T04:06:15;6.63;;;5.33;;
19107;SDS011;9686;48.832;9.126;2024-01-07T04:08:41;5.77;;;5.23;;
19107;SDS011;9686;48.832;9.126;2024-01-07T04:11:06;8.00;;;5.27;;
19107;SDS011;9686;48.832;9.126;2024-01-07T04:13:31;6.20;;;5.27;;
19107;SDS011;9686;48.832;9.126;2024-01-07T04:15:57;11.17;;;6.00;;
19107;SDS011;9686;48.832;9.126;2024-01-07T04:18:22;7.17;;;4.80;;
19107;SDS011;9686;48.832;9.126;2024-01-07T04:20:47;12.57;;;5.37;;
19107;SDS011;9686;48.832;9.126;2024-01-07T04:23:12;7.93;;;4.87;;
19107;SDS011;9686;48.832;9.126;2024-01-07T04:25:38;9.87;;;6.33;;
19107;SDS011;9686;48.832;9.126;2024-01-07T04:28:05;10.60;;;5.67;;
19107;SDS011;9686;48.832;9.126;2024-01-07T04:30:31;7.17;;;4.70;;
19107;SDS011;9686;48.832;9.126;2024-01-07T04:32:56;8.70;;;6.10;;
19107;SDS011;9686;48.832;9.126;2024-01-07T04:35:21;5.70;;;4.90;;
19107;SDS011;9686;48.832;9.126;2024-01-07T04:37:46;8.57;;;4.90;;
19107;SDS011;9686;48.832;9.126;2024-01-07T04:40:12;10.13;;;6.43;;
19107;SDS011;9686;48.832;9.126;2024-01-07T04:42:37;14.33;;;5.93;;
19107;SDS011;9686;48.832;9.126;2024-01-07T04:45:03;7.43;;;5.23;;
19107;SDS011;9686;48.832;9.126;2024-01-07T04:47:29;8.87;;;6.63;;
19107;SDS011;9686;48.832;9.126;2024-01-07T04:49:55;8.73;;;5.70;;
19107;SDS011;9686;48.832;9.126;2024-01-07T04:52:21;6.70;;;5.60;;
19107;SDS011;9686;48.832;9.126;2024-01-07T04:54:48;7.27;;;6.27;;
19107;SDS011;9686;48.832;9.126;2024-01-07T04:57:14;7.67;;;6.03;;
19107;SDS011;9686;48.832;9.126;2024-01-07T04:59:39;6.50;;;5.87;;
19107;SDS011;9686;48.832;9.126;2024-01-07T05:02:05;10.47;;;5.07;;
19107;SDS011;9686;48.832;9.126;2024-01-07T05:04:30;7.70;;;5.17;;
19107;SDS011;9686;48.832;9.126;2024-01-07T05:06:57;7.17;;;5.67;;
19107;SDS011;9686;48.832;9.126;2024-01-07T05:09:22;17.27;;;6.23;;
19107;SDS011;9686;48.832;9.126;2024-01-07T05:11:47;7.57;;;5.23;;
19107;SDS011;9686;48.832;9.126;2024-01-07T05:14:13;8.83;;;5.73;;
19107;SDS011;9686;48.832;9.126;2024-01-07T05:16:38;7.27;;;5.50;;
19107;SDS011;9686;48.832;9.126;2024-01-07T05:19:03;10.83;;;5.90;;
19107;SDS011;9686;48.832;9.126;2024-01-07T05:21:29;10.60;;;5.23;;
19107;SDS011;9686;48.832;9.126;2024-01-07T05:23:54;7.43;;;5.87;;
19107;SDS011;9686;48.832;9.126;2024-01-07T05:26:19;8.70;;;6.23;;
19107;SDS011;9686;48.832;9.126;2024-01-07T05:28:45;7.63;;;4.37;;
19107;SDS011;9686;48.832;9.126;2024-01-07T05:31:13;5.33;;;4.53;;
19107;SDS011;9686;48.832;9.126;2024-01-07T05:33:45;7.10;;;5.43;;
19107;SDS011;9686;48.832;9.126;2024-01-07T05:36:11;8.73;;;5.27;;
19107;SDS011;9686;48.832;9.126;2024-01-07T05:38:37;14.27;;;5.90;;
19107;SDS011;9686;48.832;9.126;2024-01-07T05:41:02;9.83;;;4.70;;
19107;SDS011;9686;48.832;9.126;2024-01-07T05:43:27;6.80;;;5.20;;
19107;SDS011;9686;48.832;9.126;2024-01-07T05:45:52;6.10;;;5.43;;
19107;SDS011;9686;48.832;9.126;2024-01-07T05:48:20;7.50;;;4.77;;
19107;SDS011;9686;48.832;9.126;2024-01-07T05:50:46;9.10;;;5.40;;
19107;SDS011;9686;48.832;9.126;2024-01-07T05:53:12;8.60;;;5.27;;
19107;SDS011;9686;48.832;9.126;2024-01-07T05:55:37;9.77;;;5.40;;
19107;SDS011;9686;48.832;9.126;2024-01-07T05:58:02;5.77;;;5.10;;
19107;SDS011;9686;48.832;9.126;2024-01-07T06:00:28;7.37;;;5.43;;
19107;SDS011;9686;48.832;9.126;2024-01-07T06:02:53;8.10;;;5.73;;
19107;SDS011;9686;48.832;9.126;2024-01-07T06:05:18;8.03;;;4.47;;
19107;SDS011;9686;48.832;9.126;2024-01-07T06:07:44;6.30;;;4.67;;
19107;SDS011;9686;48.832;9.126;2024-01-07T06:10:09;6.10;;;5.00;;
19107;SDS011;9686;48.832;9.126;2024-01-07T06:12:34;5.43;;;4.77;;
19107;SDS011;9686;48.832;9.126;2024-01-07T06:14:59;6.53;;;4.33;;
19107;SDS011;9686;48.832;9.126;2024-01-07T06:17:25;5.00;;;3.97;;
19107;SDS011;9686;48.832;9.126;2024-01-07T06:19:50;5.77;;;4.97;;
19107;SDS011;9686;48.832;9.126;2024-01-07T06:22:15;6.63;;;3.93;;
19107;SDS011;9686;48.832;9.126;2024-01-07T06:24:41;9.53;;;6.10;;
19107;SDS011;9686;48.832;9.126;2024-01-07T06:27:07;5.30;;;4.13;;
19107;SDS011;9686;48.832;9.126;2024-01-07T06:29:32;6.00;;;3.97;;
19107;SDS011;9686;48.832;9.126;2024-01-07T06:31:58;5.83;;;4.87;;
19107;SDS011;9686;48.832;9.126;2024-01-07T06:34:23;4.53;;;4.13;;
19107;SDS011;9686;48.832;9.126;2024-01-07T06:36:49;4.23;;;3.83;;
19107;SDS011;9686;48.832;9.126;2024-01-07T06:39:14;4.40;;;3.90;;
19107;SDS011;9686;48.832;9.126;2024-01-07T06:41:39;6.47;;;4.40;;
19107;SDS011;9686;48.832;9.126;2024-01-07T06:44:05;4.90;;;4.20;;
19107;SDS011;9686;48.832;9.126;2024-01-07T06:46:30;4.57;;;3.57;;
19107;SDS011;9686;48.832;9.126;2024-01-07T06:48:56;4.60;;;4.00;;
19107;SDS011;9686;48.832;9.126;2024-01-07T06:51:21;5.53;;;3.43;;
19107;SDS011;9686;48.832;9.126;2024-01-07T06:53:46;5.63;;;4.73;;
19107;SDS011;9686;48.832;9.126;2024-01-07T06:56:12;7.17;;;4.40;;
19107;SDS011;9686;48.832;9.126;2024-01-07T06:58:38;6.73;;;4.90;;
19107;SDS011;9686;48.832;9.126;2024-01-07T07:01:06;8.47;;;4.87;;
19107;SDS011;9686;48.832;9.126;2024-01-07T07:03:31;9.43;;;4.70;;
19107;SDS011;9686;48.832;9.126;2024-01-07T07:05:57;6.17;;;4.50;;
19107;SDS011;9686;48.832;9.126;2024-01-07T07:08:22;10.87;;;4.00;;
19107;SDS011;9686;48.832;9.126;2024-01-07T07:10:47;5.03;;;3.40;;
19107;SDS011;9686;48.832;9.126;2024-01-07T07:13:12;4.33;;;3.40;;
19107;SDS011;9686;48.832;9.126;2024-01-07T07:15:39;3.27;;;2.73;;
19107;SDS011;9686;48.832;9.126;2024-01-07T07:18:05;4.50;;;4.10;;
19107;SDS011;9686;48.832;9.126;2024-01-07T07:20:30;3.33;;;2.70;;
19107;SDS011;9686;48.832;9.126;2024-01-07T07:22:55;4.63;;;4.07;;
19107;SDS011;9686;48.832;9.126;2024-01-07T07:25:21;3.20;;;2.90;;
19107;SDS011;9686;48.832;9.126;2024-01-07T07:27:46;3.27;;;2.50;;
19107;SDS011;9686;48.832;9.126;2024-01-07T07:30:11;3.97;;;3.10;;
19107;SDS011;9686;48.832;9.126;2024-01-07T07:32:38;3.37;;;2.87;;
19107;SDS011;9686;48.832;9.126;2024-01-07T07:35:05;4.03;;;3.03;;
19107;SDS011;9686;48.832;9.126;2024-01-07T07:37:32;11.07;;;3.73;;
19107;SDS011;9686;48.832;9.126;2024-01-07T07:39:57;6.77;;;3.37;;
19107;SDS011;9686;48.832;9.126;2024-01-07T07:42:22;3.60;;;3.30;;
19107;SDS011;9686;48.832;9.126;2024-01-07T07:44:48;3.87;;;2.87;;
19107;SDS011;9686;48.832;9.126;2024-01-07T07:47:13;2.80;;;2.17;;
19107;SDS011;9686;48.832;9.126;2024-01-07T07:49:38;4.00;;;3.03;;
19107;SDS011;9686;48.832;9.126;2024-01-07T07:52:06;3.70;;;2.87;;
19107;SDS011;9686;48.832;9.126;2024-01-07T07:54:32;3.23;;;2.73;;
19107;SDS011;9686;48.832;9.126;2024-01-07T07:56:57;2.83;;;2.57;;
19107;SDS011;9686;48.832;9.126;2024-01-07T07:59:23;3.40;;;3.10;;
19107;SDS011;9686;48.832;9.126;2024-01-07T08:01:48;2.77;;;2.57;;
19107;SDS011;9686;48.832;9.126;2024-01-07T08:04:14;4.63;;;2.90;;
19107;SDS011;9686;48.832;9.126;2024-01-07T08:06:39;3.47;;;2.63;;
19107;SDS011;9686;48.832;9.126;2024-01-07T08:09:04;4.30;;;2.73;;
19107;SDS011;9686;48.832;9.126;2024-01-07T08:11:30;3.00;;;2.63;;
19107;SDS011;9686;48.832;9.126;2024-01-07T08:13:55;3.67;;;3.20;;
19107;SDS011;9686;48.832;9.126;2024-01-07T08:16:22;5.83;;;3.40;;
19107;SDS011;9686;48.832;9.126;2024-01-07T08:18:48;4.90;;;2.63;;
19107;SDS011;9686;48.832;9.126;2024-01-07T08:21:13;3.30;;;3.00;;
19107;SDS011;9686;48.832;9.126;2024-01-07T08:23:38;5.57;;;2.83;;
19107;SDS011;9686;48.832;9.126;2024-01-07T08:26:04;2.57;;;2.37;;
19107;SDS011;9686;48.832;9.126;2024-01-07T08:28:29;4.13;;;2.17;;
19107;SDS011;9686;48.832;9.126;2024-01-07T08:30:54;2.80;;;2.43;;
19107;SDS011;9686;48.832;9.126;2024-01-07T08:33:21;2.77;;;2.43;;
19107;SDS011;9686;48.832;9.126;2024-01-07T08:35:46;4.60;;;3.43;;
19107;SDS011;9686;48.832;9.126;2024-01-07T08:38:11;5.47;;;3.07;;
19107;SDS011;9686;48.832;9.126;2024-01-07T08:40:37;2.47;;;2.27;;
19107;SDS011;9686;48.832;9.126;2024-01-07T08:43:02;3.67;;;3.27;;
19107;SDS011;9686;48.832;9.126;2024-01-07T08:45:27;1.60;;;1.50;;
19107;SDS011;9686;48.832;9.126;2024-01-07T08:47:53;2.53;;;2.23;;
19107;SDS011;9686;48.832;9.126;2024-01-07T08:50:19;3.60;;;2.03;;
19107;SDS011;9686;48.832;9.126;2024-01-07T08:52:45;3.23;;;2.33;;
19107;SDS011;9686;48.832;9.126;2024-01-07T08:55:11;1.60;;;1.50;;
19107;SDS011;9686;48.832;9.126;2024-01-07T08:57:37;4.07;;;1.57;;
19107;SDS011;9686;48.832;9.126;2024-01-07T09:00:03;2.50;;;1.70;;
19107;SDS011;9686;48.832;9.126;2024-01-07T09:02:29;2.37;;;1.50;;
19107;SDS011;9686;48.832;9.126;2024-01-07T09:04:55;2.30;;;1.90;;
19107;SDS011;9686;48.832;9.126;2024-01-07T09:07:22;2.73;;;2.33;;
19107;SDS011;9686;48.832;9.126;2024-01-07T09:09:48;2.70;;;2.37;;
19107;SDS011;9686;48.832;9.126;2024-01-07T09:12:13;3.07;;;2.17;;
19107;SDS011;9686;48.832;9.126;2024-01-07T09:14:38;4.23;;;2.30;;
19107;SDS011;9686;48.832;9.126;2024-01-07T09:17:04;3.73;;;2.47;;
19107;SDS011;9686;48.832;9.126;2024-01-07T09:19:29;3.40;;;2.77;;
19107;SDS011;9686;48.832;9.126;2024-01-07T09:21:54;4.53;;;3.00;;
19107;SDS011;9686;48.832;9.126;2024-01-07T09:24:20;3.43;;;3.10;;
19107;SDS011;9686;48.832;9.126;2024-01-07T09:26:45;4.73;;;3.37;;
19107;SDS011;9686;48.832;9.126;2024-01-07T09:29:11;2.93;;;2.47;;
19107;SDS011;9686;48.832;9.126;2024-01-07T09:31:36;3.00;;;2.70;;
19107;SDS011;9686;48.832;9.126;2024-01-07T09:34:02;2.67;;;2.43;;
19107;SDS011;9686;48.832;9.126;2024-01-07T09:36:28;2.83;;;2.53;;
19107;SDS011;9686;48.832;9.126;2024-01-07T09:38:53;4.13;;;2.17;;
19107;SDS011;9686;48.832;9.126;2024-01-07T09:41:19;3.63;;;3.17;;
19107;SDS011;9686;48.832;9.126;2024-01-07T09:43:44;5.80;;;2.90;;
19107;SDS011;9686;48.832;9.126;2024-01-07T09:46:09;7.13;;;2.70;;
19107;SDS011;9686;48.832;9.126;2024-01-07T09:48:35;3.20;;;2.53;;
19107;SDS011;9686;48.832;9.126;2024-01-07T09:51:00;3.40;;;1.93;;
19107;SDS011;9686;48.832;9.126;2024-01-07T09:53:26;3.33;;;2.30;;
19107;SDS011;9686;48.832;9.126;2024-01-07T09:56:06;2.57;;;2.37;;
19107;SDS011;9686;48.832;9.126;2024-01-07T09:58:38;2.90;;;2.57;;
19107;SDS011;9686;48.832;9.126;2024-01-07T10:01:07;3.67;;;2.87;;
19107;SDS011;9686;48.832;9.126;2024-01-07T10:03:33;4.60;;;2.87;;
19107;SDS011;9686;48.832;9.126;2024-01-07T10:05:58;2.37;;;2.17;;
19107;SDS011;9686;48.832;9.126;2024-01-07T10:08:23;4.67;;;2.73;;
19107;SDS011;9686;48.832;9.126;2024-01-07T10:10:48;3.73;;;2.83;;
19107;SDS011;9686;48.832;9.126;2024-01-07T10:13:14;2.60;;;2.40;;
19107;SDS011;9686;48.832;9.126;2024-01-07T10:15:39;2.90;;;2.60;;
19107;SDS011;9686;48.832;9.126;2024-01-07T10:18:06;2.40;;;2.20;;
19107;SDS011;9686;48.832;9.126;2024-01-07T10:20:32;4.33;;;3.00;;
19107;SDS011;9686;48.832;9.126;2024-01-07T10:23:02;2.57;;;2.10;;
19107;SDS011;9686;48.832;9.126;2024-01-07T10:25:28;5.03;;;1.93;;
19107;SDS011;9686;48.832;9.126;2024-01-07T10:27:58;1.37;;;1.20;;
19107;SDS011;9686;48.832;9.126;2024-01-07T10:30:25;2.97;;;2.20;;
19107;SDS011;9686;48.832;9.126;2024-01-07T10:32:54;2.93;;;2.27;;
19107;SDS011;9686;48.832;9.126;2024-01-07T10:35:21;1.97;;;1.63;;
19107;SDS011;9686;48.832;9.126;2024-01-07T10:38:02;2.23;;;2.03;;
19107;SDS011;9686;48.832;9.126;2024-01-07T10:40:28;4.53;;;2.17;;
19107;SDS011;9686;48.832;9.126;2024-01-07T10:42:56;5.50;;;2.50;;
19107;SDS011;9686;48.832;9.126;2024-01-07T10:45:22;2.73;;;2.17;;
19107;SDS011;9686;48.832;9.126;2024-01-07T10:47:48;2.37;;;1.70;;
19107;SDS011;9686;48.832;9.126;2024-01-07T10:50:16;4.30;;;1.70;;
19107;SDS011;9686;48.832;9.126;2024-01-07T10:52:42;2.47;;;2.10;;
19107;SDS011;9686;48.832;9.126;2024-01-07T10:55:08;3.93;;;2.77;;
19107;SDS011;9686;48.832;9.126;2024-01-07T10:57:47;2.53;;;2.23;;
19107;SDS011;9686;48.832;9.126;2024-01-07T11:00:13;2.37;;;2.17;;
19107;SDS011;9686;48.832;9.126;2024-01-07T11:02:51;3.10;;;2.53;;
19107;SDS011;9686;48.832;9.126;2024-01-07T11:08:26;2.70;;;2.07;;
19107;SDS011;9686;48.832;9.126;2024-01-07T11:11:03;2.37;;;2.17;;
19107;SDS011;9686;48.832;9.126;2024-01-07T11:13:32;2.27;;;2.07;;
19107;SDS011;9686;48.832;9.126;2024-01-07T11:16:03;3.10;;;2.47;;
19107;SDS011;9686;48.832;9.126;2024-01-07T11:18:29;5.63;;;2.50;;
19107;SDS011;9686;48.832;9.126;2024-01-07T11:20:59;2.47;;;2.27;;
19107;SDS011;9686;48.832;9.126;2024-01-07T11:23:34;2.47;;;2.27;;
19107;SDS011;9686;48.832;9.126;2024-01-07T11:26:04;4.33;;;2.90;;
19107;SDS011;9686;48.832;9.126;2024-01-07T11:31:20;4.30;;;2.73;;
19107;SDS011;9686;48.832;9.126;2024-01-07T11:33:49;1.80;;;1.70;;
19107;SDS011;9686;48.832;9.126;2024-01-07T11:36:16;2.40;;;2.20;;
19107;SDS011;9686;48.832;9.126;2024-01-07T11:38:47;2.50;;;2.30;;
19107;SDS011;9686;48.832;9.126;2024-01-07T11:41:14;2.30;;;2.10;;
19107;SDS011;9686;48.832;9.126;2024-01-07T11:43:55;2.93;;;2.40;;
19107;SDS011;9686;48.832;9.126;2024-01-07T11:46:24;2.23;;;1.80;;
19107;SDS011;9686;48.832;9.126;2024-01-07T11:48:52;2.50;;;2.27;;
19107;SDS011;9686;48.832;9.126;2024-01-07T11:51:18;2.23;;;2.03;;
19107;SDS011;9686;48.832;9.126;2024-01-07T11:53:47;3.30;;;2.53;;
19107;SDS011;9686;48.832;9.126;2024-01-07T11:56:13;3.27;;;2.60;;
19107;SDS011;9686;48.832;9.126;2024-01-07T11:58:39;2.53;;;2.27;;
19107;SDS011;9686;48.832;9.126;2024-01-07T12:01:05;2.20;;;1.77;;
19107;SDS011;9686;48.832;9.126;2024-01-07T12:03:30;2.23;;;2.03;;
19107;SDS011;9686;48.832;9.126;2024-01-07T12:05:56;2.80;;;2.60;;
19107;SDS011;9686;48.832;9.126;2024-01-07T12:08:21;3.13;;;2.43;;
19107;SDS011;9686;48.832;9.126;2024-01-07T12:10:46;3.30;;;2.97;;
19107;SDS011;9686;48.832;9.126;2024-01-07T12:13:12;2.37;;;2.17;;
19107;SDS011;9686;48.832;9.126;2024-01-07T12:15:38;4.60;;;2.43;;
19107;SDS011;9686;48.832;9.126;2024-01-07T12:18:04;3.60;;;2.93;;
19107;SDS011;9686;48.832;9.126;2024-01-07T12:20:29;3.80;;;2.80;;
19107;SDS011;9686;48.832;9.126;2024-01-07T12:23:04;4.40;;;2.43;;
19107;SDS011;9686;48.832;9.126;2024-01-07T12:25:34;3.20;;;2.50;;
19107;SDS011;9686;48.832;9.126;2024-01-07T12:28:00;3.10;;;2.27;;
19107;SDS011;9686;48.832;9.126;2024-01-07T12:30:26;3.00;;;2.73;;
19107;SDS011;9686;48.832;9.126;2024-01-07T12:32:52;3.20;;;2.43;;
19107;SDS011;9686;48.832;9.126;2024-01-07T12:35:18;6.13;;;3.50;;
19107;SDS011;9686;48.832;9.126;2024-01-07T12:37:43;5.33;;;2.73;;
19107;SDS011;9686;48.832;9.126;2024-01-07T12:40:09;4.60;;;2.50;;
19107;SDS011;9686;48.832;9.126;2024-01-07T12:42:36;6.03;;;3.77;;
19107;SDS011;9686;48.832;9.126;2024-01-07T12:45:04;3.30;;;2.73;;
19107;SDS011;9686;48.832;9.126;2024-01-07T12:47:30;3.77;;;3.17;;
19107;SDS011;9686;48.832;9.126;2024-01-07T12:49:55;2.73;;;2.53;;
19107;SDS011;9686;48.832;9.126;2024-01-07T12:52:22;3.87;;;3.37;;
19107;SDS011;9686;48.832;9.126;2024-01-07T12:54:47;4.17;;;3.57;;
19107;SDS011;9686;48.832;9.126;2024-01-07T12:57:12;4.93;;;3.37;;
19107;SDS011;9686;48.832;9.126;2024-01-07T12:59:38;3.70;;;2.93;;
19107;SDS011;9686;48.832;9.126;2024-01-07T13:02:03;5.13;;;3.90;;
19107;SDS011;9686;48.832;9.126;2024-01-07T13:04:28;2.63;;;2.43;;
19107;SDS011;9686;48.832;9.126;2024-01-07T13:06:54;3.43;;;3.13;;
19107;SDS011;9686;48.832;9.126;2024-01-07T13:09:19;3.43;;;3.13;;
19107;SDS011;9686;48.832;9.126;2024-01-07T13:11:44;3.17;;;2.97;;
19107;SDS011;9686;48.832;9.126;2024-01-07T13:14:10;5.23;;;3.67;;
19107;SDS011;9686;48.832;9.126;2024-01-07T13:16:35;5.57;;;3.73;;
19107;SDS011;9686;48.832;9.126;2024-01-07T13:19:00;4.63;;;4.10;;
19107;SDS011;9686;48.832;9.126;2024-01-07T13:21:26;6.50;;;3.00;;
19107;SDS011;9686;48.832;9.126;2024-01-07T13:23:51;5.40;;;2.93;;
19107;SDS011;9686;48.832;9.126;2024-01-07T13:26:16;5.17;;;3.40;;
19107;SDS011;9686;48.832;9.126;2024-01-07T13:28:42;6.63;;;2.73;;
19107;SDS011;9686;48.832;9.126;2024-01-07T13:31:07;3.50;;;3.07;;
19107;SDS011;9686;48.832;9.126;2024-01-07T13:33:34;4.83;;;3.50;;
19107;SDS011;9686;48.832;9.126;2024-01-07T13:36:00;3.67;;;3.37;;
19107;SDS011;9686;48.832;9.126;2024-01-07T13:38:25;2.67;;;2.47;;
19107;SDS011;9686;48.832;9.126;2024-01-07T13:40:51;3.83;;;3.43;;
19107;SDS011;9686;48.832;9.126;2024-01-07T13:43:16;6.90;;;3.00;;
19107;SDS011;9686;48.832;9.126;2024-01-07T13:45:42;3.33;;;3.10;;
19107;SDS011;9686;48.832;9.126;2024-01-07T13:48:08;4.70;;;2.93;;
19107;SDS011;9686;48.832;9.126;2024-01-07T13:50:34;3.30;;;3.00;;
19107;SDS011;9686;48.832;9.126;2024-01-07T13:52:59;3.43;;;3.13;;
19107;SDS011;9686;48.832;9.126;2024-01-07T13:55:24;3.17;;;2.60;;
19107;SDS011;9686;48.832;9.126;2024-01-07T13:57:50;4.17;;;2.87;;
19107;SDS011;9686;48.832;9.126;2024-01-07T14:00:15;4.70;;;3.37;;
19107;SDS011;9686;48.832;9.126;2024-01-07T14:02:43;5.00;;;3.20;;
19107;SDS011;9686;48.832;9.126;2024-01-07T14:05:10;5.33;;;3.37;;
19107;SDS011;9686;48.832;9.126;2024-01-07T14:07:36;5.87;;;3.33;;
19107;SDS011;9686;48.832;9.126;2024-01-07T14:10:02;4.57;;;3.17;;
19107;SDS011;9686;48.832;9.126;2024-01-07T14:12:29;4.37;;;3.07;;
19107;SDS011;9686;48.832;9.126;2024-01-07T14:14:54;5.37;;;4.63;;
19107;SDS011;9686;48.832;9.126;2024-01-07T14:17:19;4.33;;;3.43;;
19107;SDS011;9686;48.832;9.126;2024-01-07T14:19:44;5.97;;;3.50;;
19107;SDS011;9686;48.832;9.126;2024-01-07T14:22:11;3.60;;;3.30;;
19107;SDS011;9686;48.832;9.126;2024-01-07T14:24:37;6.37;;;5.03;;
19107;SDS011;9686;48.832;9.126;2024-01-07T14:27:03;6.03;;;3.37;;
19107;SDS011;9686;48.832;9.126;2024-01-07T14:29:28;6.63;;;3.67;;
19107;SDS011;9686;48.832;9.126;2024-01-07T14:31:54;4.43;;;4.03;;
19107;SDS011;9686;48.832;9.126;2024-01-07T14:34:19;4.27;;;3.30;;
19107;SDS011;9686;48.832;9.126;2024-01-07T14:36:45;4.00;;;3.03;;
19107;SDS011;9686;48.832;9.126;2024-01-07T14:39:10;4.00;;;3.60;;
19107;SDS011;9686;48.832;9.126;2024-01-07T14:41:38;3.33;;;3.03;;
19107;SDS011;9686;48.832;9.126;2024-01-07T14:44:03;3.57;;;3.27;;
19107;SDS011;9686;48.832;9.126;2024-01-07T14:46:28;4.20;;;3.00;;
19107;SDS011;9686;48.832;9.126;2024-01-07T14:48:54;2.93;;;2.73;;
19107;SDS011;9686;48.832;9.126;2024-01-07T14:51:19;4.37;;;3.97;;
19107;SDS011;9686;48.832;9.126;2024-01-07T14:53:45;5.53;;;4.17;;
19107;SDS011;9686;48.832;9.126;2024-01-07T14:56:10;4.97;;;4.13;;
19107;SDS011;9686;48.832;9.126;2024-01-07T14:58:35;3.43;;;3.00;;